Time;durP1;ratioP1;P1;durP2;ratioP2;P2;SDS_P1;SDS_P2;PMS_P1;PMS_P2;Temp;Humidity;BMP_temperature;BMP_pressure;BME280_temperature;BME280_humidity;BME280_pressure;Samples;Min_cycle;Max_cycle;Signal;HPM_P1;HPM_P2
2022/07/25 00:00:38;;;;;;;8.02;4.20;;;31.40;32.40;;;;;;6276693;28;20083;-77
2022/07/25 00:03:40;;;;;;;6.10;3.97;;;31.40;32.50;;;;;;6276704;28;20040;-76
2022/07/25 00:06:41;;;;;;;9.23;4.45;;;31.30;32.50;;;;;;6274924;28;20068;-76
2022/07/25 00:09:43;;;;;;;6.45;3.97;;;31.30;32.50;;;;;;6275551;28;20044;-76
2022/07/25 00:12:44;;;;;;;8.02;3.75;;;31.20;32.50;;;;;;6277593;28;20103;-76
2022/07/25 00:15:45;;;;;;;5.72;3.80;;;31.20;32.60;;;;;;6276456;28;20029;-76
2022/07/25 00:18:46;;;;;;;6.65;4.18;;;31.10;32.60;;;;;;6275452;28;20061;-77
2022/07/25 00:21:47;;;;;;;7.43;4.38;;;31.10;32.70;;;;;;6276079;28;20423;-76
2022/07/25 00:24:48;;;;;;;5.82;3.65;;;31.00;32.80;;;;;;6276239;28;20037;-76
2022/07/25 00:27:49;;;;;;;9.27;3.85;;;31.00;33.00;;;;;;6275186;28;20060;-76
2022/07/25 00:30:50;;;;;;;5.63;4.20;;;30.90;33.10;;;;;;6276032;28;20424;-75
2022/07/25 00:33:51;;;;;;;6.53;3.75;;;30.90;33.30;;;;;;6275992;28;20021;-75
2022/07/25 00:36:51;;;;;;;6.80;3.75;;;30.80;33.40;;;;;;6275056;28;20033;-75
2022/07/25 00:39:52;;;;;;;5.72;3.50;;;30.70;33.50;;;;;;6275736;28;20098;-76
2022/07/25 00:42:53;;;;;;;6.00;3.33;;;30.60;33.60;;;;;;6275658;28;20029;-76
2022/07/25 00:45:54;;;;;;;6.55;3.95;;;30.50;33.70;;;;;;6274786;28;20025;-75
2022/07/25 00:48:55;;;;;;;5.38;3.83;;;30.50;34.00;;;;;;6279548;28;20020;-76
2022/07/25 00:51:57;;;;;;;6.50;4.03;;;30.40;34.10;;;;;;6257752;28;20471;-75
2022/07/25 00:54:57;;;;;;;10.52;4.22;;;30.40;34.30;;;;;;6274122;28;20048;-75
2022/07/25 00:57:59;;;;;;;5.47;3.65;;;30.30;34.30;;;;;;6274459;28;20060;-76
2022/07/25 01:01:00;;;;;;;9.10;3.80;;;30.30;34.40;;;;;;6275355;28;20036;-76
2022/07/25 01:04:02;;;;;;;6.80;3.53;;;30.20;34.40;;;;;;6273996;28;20036;-75
2022/07/25 01:07:03;;;;;;;6.53;4.00;;;30.20;34.50;;;;;;6274846;28;20206;-75
2022/07/25 01:10:05;;;;;;;5.47;3.55;;;30.20;34.50;;;;;;6275173;28;20029;-75
2022/07/25 01:13:06;;;;;;;5.18;3.92;;;30.30;34.40;;;;;;6274793;28;20035;-76
2022/07/25 01:16:07;;;;;;;6.15;3.42;;;30.30;34.50;;;;;;6275163;28;20028;-76
2022/07/25 01:19:08;;;;;;;4.38;3.55;;;30.30;34.60;;;;;;6274829;28;20025;-76
2022/07/25 01:22:09;;;;;;;7.05;3.80;;;30.30;34.60;;;;;;6254299;28;20025;-77
2022/07/25 01:25:14;;;;;;;5.03;3.78;;;30.30;34.60;;;;;;6248910;28;20029;-77
2022/07/25 01:28:15;;;;;;;5.85;4.60;;;30.30;34.60;;;;;;6249151;28;20041;-77
2022/07/25 01:31:16;;;;;;;5.60;3.70;;;30.40;34.60;;;;;;6269484;28;20029;-77
2022/07/25 01:34:17;;;;;;;7.13;3.90;;;30.40;34.70;;;;;;6273696;28;20045;-76
2022/07/25 01:37:18;;;;;;;6.50;4.05;;;30.40;34.80;;;;;;6289806;28;20060;-77
2022/07/25 01:40:19;;;;;;;6.35;3.67;;;30.40;34.90;;;;;;6290275;28;20062;-75
2022/07/25 01:43:19;;;;;;;6.03;4.30;;;30.40;34.90;;;;;;6290265;28;20078;-76
2022/07/25 01:46:20;;;;;;;4.85;3.83;;;30.40;34.90;;;;;;6273867;28;20029;-76
2022/07/25 01:49:21;;;;;;;8.50;3.90;;;30.40;35.00;;;;;;6274187;28;20025;-76
2022/07/25 01:52:22;;;;;;;6.90;4.20;;;30.40;35.00;;;;;;6273688;28;20052;-75
2022/07/25 01:55:23;;;;;;;7.35;4.03;;;30.30;34.80;;;;;;6274225;28;20040;-77
2022/07/25 01:58:29;;;;;;;7.38;4.38;;;30.30;34.90;;;;;;6272926;28;20029;-77
2022/07/25 02:01:30;;;;;;;6.78;4.10;;;30.20;34.90;;;;;;6274332;28;20044;-78
2022/07/25 02:04:31;;;;;;;6.00;4.45;;;30.10;34.80;;;;;;6273054;28;20029;-78
2022/07/25 02:07:32;;;;;;;9.50;4.72;;;30.20;34.90;;;;;;6272732;28;20072;-77
2022/07/25 02:10:32;;;;;;;7.00;4.15;;;30.10;34.90;;;;;;6275317;28;20069;-77
2022/07/25 02:13:33;;;;;;;7.75;4.20;;;30.10;35.10;;;;;;6274043;28;20033;-76
2022/07/25 02:16:34;;;;;;;8.18;4.47;;;30.00;35.20;;;;;;6273577;28;20017;-76
2022/07/25 02:19:36;;;;;;;4.97;3.80;;;29.90;35.30;;;;;;6273911;28;20047;-76
2022/07/25 02:22:37;;;;;;;5.03;3.55;;;29.90;35.40;;;;;;6273313;28;20029;-76
2022/07/25 02:25:38;;;;;;;5.78;3.95;;;29.80;35.40;;;;;;6273760;28;20083;-78
2022/07/25 02:28:39;;;;;;;5.03;3.67;;;29.70;35.50;;;;;;6273399;28;20029;-76
2022/07/25 02:31:40;;;;;;;9.00;4.15;;;29.60;35.60;;;;;;6272776;28;20090;-76
2022/07/25 02:34:41;;;;;;;5.22;3.95;;;29.50;35.50;;;;;;6272811;28;20357;-76
2022/07/25 02:37:48;;;;;;;6.30;3.60;;;29.50;35.50;;;;;;6273277;28;20028;-76
2022/07/25 02:40:51;;;;;;;6.55;3.58;;;29.40;35.30;;;;;;6293504;28;20457;-76
2022/07/25 02:43:51;;;;;;;6.10;3.63;;;29.40;35.20;;;;;;6298105;28;20424;-76
2022/07/25 02:46:52;;;;;;;4.90;3.90;;;29.40;35.20;;;;;;6297831;28;20035;-75
2022/07/25 02:49:53;;;;;;;7.85;4.40;;;29.40;35.10;;;;;;6297479;28;20369;-75
2022/07/25 02:52:54;;;;;;;11.98;3.72;;;29.30;35.10;;;;;;6297751;28;20461;-76
2022/07/25 02:55:55;;;;;;;5.90;3.80;;;29.30;35.10;;;;;;6294854;28;20449;-75
2022/07/25 02:58:56;;;;;;;6.57;4.07;;;29.30;35.20;;;;;;6295650;28;20111;-76
2022/07/25 03:01:57;;;;;;;5.85;3.75;;;29.30;35.20;;;;;;6272203;28;20037;-75
2022/07/25 03:04:58;;;;;;;5.13;3.80;;;29.30;35.40;;;;;;6272979;28;20036;-75
2022/07/25 03:07:59;;;;;;;8.43;4.00;;;29.20;35.40;;;;;;6272168;28;20033;-75
2022/07/25 03:10:59;;;;;;;4.72;3.95;;;29.20;35.50;;;;;;6277051;28;20025;-75
2022/07/25 03:14:00;;;;;;;6.00;4.03;;;29.20;35.50;;;;;;6278184;28;20354;-75
2022/07/25 03:17:01;;;;;;;5.68;4.03;;;29.10;35.50;;;;;;6276827;28;20047;-76
2022/07/25 03:20:03;;;;;;;7.30;3.90;;;29.10;35.60;;;;;;6277554;28;20116;-75
2022/07/25 03:23:04;;;;;;;8.55;3.60;;;29.10;35.70;;;;;;6277598;28;20021;-76
2022/07/25 03:26:05;;;;;;;4.97;4.00;;;29.10;35.70;;;;;;6276354;28;20064;-76
2022/07/25 03:29:06;;;;;;;6.65;3.95;;;29.10;35.90;;;;;;6277493;28;20369;-76
2022/07/25 03:32:08;;;;;;;7.53;4.38;;;29.00;35.90;;;;;;6276277;28;20323;-75
2022/07/25 03:35:09;;;;;;;6.60;3.80;;;29.00;36.10;;;;;;6276094;28;20056;-75
2022/07/25 03:38:10;;;;;;;11.13;4.43;;;28.90;36.20;;;;;;6277115;28;20446;-76
2022/07/25 03:41:12;;;;;;;6.50;4.55;;;28.80;36.30;;;;;;6276469;28;20127;-76
2022/07/25 03:44:13;;;;;;;5.80;4.38;;;28.80;36.50;;;;;;6291919;28;20041;-76
2022/07/25 03:47:15;;;;;;;4.97;3.92;;;28.70;36.60;;;;;;6259488;28;20457;-76
2022/07/25 03:50:16;;;;;;;5.63;3.97;;;28.70;36.80;;;;;;6292482;28;20056;-76
2022/07/25 03:53:17;;;;;;;6.05;4.53;;;28.60;36.70;;;;;;6276652;28;20128;-75
2022/07/25 03:56:17;;;;;;;7.05;4.30;;;28.60;36.80;;;;;;6272807;28;20029;-76
2022/07/25 03:59:20;;;;;;;6.32;4.03;;;28.60;36.90;;;;;;6269396;28;20033;-75
2022/07/25 04:02:21;;;;;;;7.45;3.95;;;28.60;37.00;;;;;;6277019;28;20035;-75
2022/07/25 04:05:21;;;;;;;8.68;4.55;;;28.50;37.10;;;;;;6276515;28;20117;-75
2022/07/25 04:08:22;;;;;;;6.25;4.35;;;28.50;37.10;;;;;;6276536;28;20036;-77
2022/07/25 04:11:24;;;;;;;7.05;4.35;;;28.50;37.20;;;;;;6275314;28;20095;-75
2022/07/25 04:14:24;;;;;;;7.82;4.32;;;28.50;37.20;;;;;;6278168;28;20025;-76
2022/07/25 04:17:25;;;;;;;6.38;3.85;;;28.50;37.20;;;;;;6282682;28;20025;-76
2022/07/25 04:20:26;;;;;;;8.85;5.57;;;28.60;37.30;;;;;;6268391;28;20033;-77
2022/07/25 04:23:27;;;;;;;6.25;4.30;;;28.60;37.50;;;;;;6276261;28;20029;-76
2022/07/25 04:26:28;;;;;;;8.90;5.15;;;28.60;37.80;;;;;;6276104;28;20036;-76
2022/07/25 04:29:29;;;;;;;6.80;4.75;;;28.60;38.30;;;;;;6275943;28;20389;-77
2022/07/25 04:32:30;;;;;;;10.70;4.47;;;28.60;38.70;;;;;;6275669;28;20051;-76
2022/07/25 04:35:31;;;;;;;10.50;4.95;;;28.60;39.00;;;;;;6276262;28;20040;-75
2022/07/25 04:38:32;;;;;;;13.43;4.60;;;28.50;39.30;;;;;;6276000;28;20120;-76
2022/07/25 04:41:33;;;;;;;10.35;4.97;;;28.50;39.40;;;;;;6277932;28;20408;-78
2022/07/25 04:44:34;;;;;;;13.23;4.82;;;28.40;39.60;;;;;;6257371;28;20095;-79
2022/07/25 04:47:35;;;;;;;8.23;4.57;;;28.40;39.80;;;;;;6291630;28;20043;-78
2022/07/25 04:50:36;;;;;;;6.32;4.35;;;28.30;39.80;;;;;;6291254;28;20057;-78
2022/07/25 04:53:37;;;;;;;7.32;4.82;;;28.30;39.90;;;;;;6273827;28;20093;-78
2022/07/25 04:56:38;;;;;;;9.13;4.90;;;28.30;40.00;;;;;;6293712;28;20116;-78
2022/07/25 04:59:39;;;;;;;6.25;4.07;;;28.20;40.00;;;;;;6274665;28;20060;-78
2022/07/25 05:02:40;;;;;;;7.57;4.82;;;28.20;40.00;;;;;;6257343;28;20404;-77
2022/07/25 05:05:41;;;;;;;9.77;4.47;;;28.20;40.00;;;;;;6273478;28;20037;-77
2022/07/25 05:08:42;;;;;;;6.53;4.28;;;28.20;40.40;;;;;;6274502;28;20544;-77
2022/07/25 05:11:43;;;;;;;7.32;4.20;;;28.20;40.50;;;;;;6274044;28;20029;-77
2022/07/25 05:14:44;;;;;;;12.52;4.55;;;28.10;40.40;;;;;;6274682;28;20049;-74
2022/07/25 05:17:45;;;;;;;8.73;4.82;;;28.10;41.00;;;;;;6256141;28;20620;-74
2022/07/25 05:20:46;;;;;;;6.38;4.50;;;28.10;40.20;;;;;;6290422;28;20049;-79
2022/07/25 05:23:47;;;;;;;5.65;4.00;;;28.10;40.20;;;;;;6273157;28;20028;-80
2022/07/25 05:26:49;;;;;;;7.93;4.55;;;28.20;40.00;;;;;;6273987;28;20438;-79
2022/07/25 05:29:50;;;;;;;9.48;4.63;;;28.20;39.90;;;;;;6264553;28;20029;-76
2022/07/25 05:32:51;;;;;;;7.07;4.85;;;28.30;40.00;;;;;;6232013;28;20037;-76
2022/07/25 05:35:52;;;;;;;6.70;4.47;;;28.30;40.10;;;;;;6249233;28;20102;-74
2022/07/25 05:38:53;;;;;;;8.15;4.35;;;28.30;39.90;;;;;;6248885;28;20450;-76
2022/07/25 05:41:54;;;;;;;9.07;4.68;;;28.40;39.60;;;;;;6265672;28;20064;-75
2022/07/25 05:44:55;;;;;;;7.97;4.88;;;28.40;39.40;;;;;;6283822;28;20447;-76
2022/07/25 05:47:56;;;;;;;10.73;4.70;;;28.50;39.30;;;;;;6273658;28;20133;-76
2022/07/25 05:50:58;;;;;;;8.25;4.47;;;28.60;39.30;;;;;;6290334;28;20037;-76
2022/07/25 05:53:59;;;;;;;6.65;4.30;;;28.60;39.20;;;;;;6255782;28;20036;-76
2022/07/25 05:57:00;;;;;;;8.93;5.00;;;28.60;39.10;;;;;;6273050;28;20044;-75
2022/07/25 06:00:04;;;;;;;8.43;4.80;;;28.60;39.00;;;;;;6272907;28;20704;-75
2022/07/25 06:03:05;;;;;;;19.13;5.50;;;28.70;39.10;;;;;;6273297;28;20048;-75
2022/07/25 06:06:07;;;;;;;6.63;4.25;;;28.70;38.90;;;;;;6275836;28;20025;-75
2022/07/25 06:09:08;;;;;;;11.57;4.60;;;28.80;39.00;;;;;;6272535;28;20033;-75
2022/07/25 06:12:09;;;;;;;8.30;4.95;;;28.80;38.90;;;;;;6272910;28;20059;-75
2022/07/25 06:15:10;;;;;;;7.22;4.70;;;28.80;38.80;;;;;;6256309;28;20087;-75
2022/07/25 06:18:11;;;;;;;7.75;5.07;;;28.90;38.80;;;;;;6273497;28;20037;-75
2022/07/25 06:21:12;;;;;;;7.45;4.82;;;29.00;38.70;;;;;;6272271;28;20110;-75
2022/07/25 06:24:13;;;;;;;7.65;4.50;;;29.00;38.50;;;;;;6272329;28;20033;-76
2022/07/25 06:27:14;;;;;;;11.05;4.82;;;29.10;38.40;;;;;;6272527;28;20068;-76
2022/07/25 06:30:15;;;;;;;14.23;4.78;;;29.10;38.40;;;;;;6255656;28;20036;-76
2022/07/25 06:33:16;;;;;;;13.38;5.07;;;29.20;38.30;;;;;;6271837;28;20029;-74
2022/07/25 06:36:17;;;;;;;10.57;4.60;;;29.30;38.30;;;;;;6272172;28;20097;-77
2022/07/25 06:39:17;;;;;;;11.15;4.95;;;29.30;38.20;;;;;;6274806;28;20033;-76
2022/07/25 06:42:18;;;;;;;13.45;5.00;;;29.40;37.90;;;;;;6271979;28;20033;-75
2022/07/25 06:45:19;;;;;;;9.98;4.93;;;29.50;37.80;;;;;;6275258;28;20029;-74
2022/07/25 06:48:23;;;;;;;6.97;4.57;;;29.60;37.80;;;;;;6277985;28;20035;-74
2022/07/25 06:51:24;;;;;;;7.05;4.95;;;29.60;37.60;;;;;;6262211;28;20119;-75
2022/07/25 06:54:25;;;;;;;8.88;4.75;;;29.70;37.60;;;;;;6293337;28;20052;-74
2022/07/25 06:57:26;;;;;;;6.15;4.43;;;29.80;37.50;;;;;;6276390;28;20370;-74
2022/07/25 07:00:28;;;;;;;9.30;5.25;;;29.90;37.40;;;;;;6277143;28;20044;-75
2022/07/25 07:03:29;;;;;;;11.07;4.80;;;30.00;37.30;;;;;;6277738;28;20025;-74
2022/07/25 07:06:30;;;;;;;7.55;5.15;;;30.10;37.00;;;;;;6285258;28;20048;-75
2022/07/25 07:09:31;;;;;;;7.25;5.28;;;30.20;36.80;;;;;;6302487;28;20039;-75
2022/07/25 07:12:32;;;;;;;7.88;4.72;;;30.50;36.60;;;;;;6301866;28;20112;-75
2022/07/25 07:15:34;;;;;;;8.32;4.78;;;30.60;36.20;;;;;;6302501;28;20033;-74
2022/07/25 07:18:35;;;;;;;6.60;4.57;;;30.70;35.90;;;;;;6301970;28;20081;-75
2022/07/25 07:21:36;;;;;;;7.93;5.10;;;30.80;35.40;;;;;;6301100;28;20028;-75
2022/07/25 07:24:37;;;;;;;10.45;5.43;;;30.80;35.20;;;;;;6302216;28;20362;-75
2022/07/25 07:27:38;;;;;;;12.52;4.93;;;30.90;35.10;;;;;;6301511;28;20029;-74
2022/07/25 07:30:39;;;;;;;9.15;4.47;;;30.90;35.10;;;;;;6301147;28;20051;-75
2022/07/25 07:33:40;;;;;;;20.45;5.07;;;31.00;35.00;;;;;;6302258;28;20029;-75
2022/07/25 07:36:41;;;;;;;9.57;4.75;;;31.00;34.90;;;;;;6264079;28;20025;-74
2022/07/25 07:39:42;;;;;;;6.18;4.60;;;31.10;34.80;;;;;;6251177;28;20057;-75
2022/07/25 07:42:46;;;;;;;10.65;4.72;;;31.20;34.70;;;;;;6267828;28;20414;-75
2022/07/25 07:45:47;;;;;;;13.07;5.07;;;31.30;34.60;;;;;;6259832;28;20091;-76
2022/07/25 07:48:48;;;;;;;7.25;4.43;;;31.40;34.40;;;;;;6292856;28;20474;-75
2022/07/25 07:51:49;;;;;;;12.35;5.43;;;31.50;34.30;;;;;;6276948;28;20494;-75
2022/07/25 07:58:11;;;;;;;15.50;5.18;;;31.60;34.00;;;;;;6276550;28;20040;-75
2022/07/25 08:01:11;;;;;;;6.72;4.55;;;31.70;33.80;;;;;;6275445;28;20040;-75
2022/07/25 08:04:12;;;;;;;12.00;4.72;;;31.80;33.50;;;;;;6276295;28;20032;-75
2022/07/25 08:07:13;;;;;;;10.50;4.75;;;31.90;33.10;;;;;;6276283;28;20052;-75
2022/07/25 08:10:14;;;;;;;10.55;5.28;;;31.90;32.80;;;;;;6274988;28;20029;-75
2022/07/25 08:13:21;;;;;;;17.73;5.30;;;31.80;32.70;;;;;;6274543;28;20119;-76
2022/07/25 08:16:22;;;;;;;9.48;5.68;;;31.90;32.60;;;;;;6276843;28;20033;-75
2022/07/25 08:19:23;;;;;;;16.45;5.18;;;31.90;32.40;;;;;;6274529;28;20044;-75
2022/07/25 08:22:24;;;;;;;9.70;4.47;;;31.90;32.10;;;;;;6275639;28;20029;-75
2022/07/25 08:25:26;;;;;;;8.57;4.68;;;32.00;32.00;;;;;;6274179;28;20036;-75
2022/07/25 08:28:27;;;;;;;8.40;4.80;;;32.10;31.70;;;;;;6275042;28;20037;-75
2022/07/25 08:31:28;;;;;;;7.72;4.80;;;32.20;31.50;;;;;;6275043;28;20033;-75
2022/07/25 08:34:29;;;;;;;7.38;4.65;;;32.40;31.30;;;;;;6274389;28;20032;-76
2022/07/25 08:37:30;;;;;;;10.93;4.70;;;32.50;31.10;;;;;;6274961;28;20029;-76
2022/07/25 08:40:32;;;;;;;11.90;4.63;;;32.60;31.00;;;;;;6274471;28;20362;-77
2022/07/25 08:43:36;;;;;;;6.90;4.50;;;32.70;31.00;;;;;;6274288;28;20347;-75
2022/07/25 08:46:40;;;;;;;9.95;5.03;;;32.70;30.90;;;;;;6275427;28;20024;-75
2022/07/25 08:49:41;;;;;;;12.75;4.65;;;32.70;30.90;;;;;;6259818;28;20049;-75
2022/07/25 08:52:44;;;;;;;9.80;4.90;;;32.80;31.10;;;;;;6257260;28;20123;-75
2022/07/25 08:55:45;;;;;;;9.73;4.63;;;32.90;31.30;;;;;;6274093;28;20056;-75
2022/07/25 08:58:46;;;;;;;6.45;4.70;;;33.10;31.70;;;;;;6275067;28;20025;-75
2022/07/25 09:01:47;;;;;;;8.40;4.45;;;33.00;31.60;;;;;;6257077;28;20025;-76
2022/07/25 09:04:48;;;;;;;8.13;4.32;;;33.20;31.60;;;;;;6272944;28;20032;-75
2022/07/25 09:07:50;;;;;;;19.52;4.68;;;33.20;31.30;;;;;;6275941;28;20450;-75
2022/07/25 09:10:52;;;;;;;9.85;4.82;;;33.40;31.20;;;;;;6273911;28;20043;-75
2022/07/25 09:14:01;;;;;;;12.82;4.63;;;33.40;31.00;;;;;;6273875;28;20044;-75
2022/07/25 09:17:06;;;;;;;11.90;4.45;;;33.50;30.80;;;;;;6273342;28;20120;-76
2022/07/25 09:20:08;;;;;;;7.78;4.03;;;33.60;30.70;;;;;;6273106;28;20160;-76
2022/07/25 09:23:14;;;;;;;10.75;4.65;;;33.70;30.50;;;;;;6273235;28;20050;-74
2022/07/25 09:26:15;;;;;;;9.45;4.40;;;33.80;30.50;;;;;;6256794;28;20036;-78
2022/07/25 09:29:29;;;;;;;7.55;4.47;;;33.90;30.50;;;;;;6274414;28;20032;-78
2022/07/25 09:32:29;;;;;;;9.48;4.50;;;34.00;30.40;;;;;;6273812;28;20063;-77
2022/07/25 09:35:33;;;;;;;15.45;4.88;;;34.10;30.30;;;;;;6267931;28;20032;-77
2022/07/25 09:38:34;;;;;;;11.93;4.38;;;34.20;30.00;;;;;;6282675;28;20033;-77
2022/07/25 09:41:37;;;;;;;7.55;4.38;;;34.30;29.90;;;;;;6274421;28;20462;-77
2022/07/25 09:44:38;;;;;;;6.57;4.20;;;34.30;29.80;;;;;;6274970;28;20029;-77
2022/07/25 09:47:54;;;;;;;7.43;4.43;;;34.40;29.80;;;;;;6264793;28;20084;-77
2022/07/25 09:50:55;;;;;;;8.07;4.28;;;34.40;29.80;;;;;;6274224;28;20036;-77
2022/07/25 09:53:56;;;;;;;11.02;4.07;;;34.50;29.40;;;;;;6273760;28;20425;-77
2022/07/25 09:56:57;;;;;;;5.57;3.90;;;34.50;29.20;;;;;;6272814;28;20083;-77
2022/07/25 09:59:59;;;;;;;13.30;4.57;;;34.70;29.60;;;;;;6273768;28;20029;-77
2022/07/25 10:03:25;;;;;;;12.80;4.47;;;34.80;29.00;;;;;;6268559;28;20450;-78
2022/07/25 10:06:34;;;;;;;6.47;4.53;;;34.90;28.80;;;;;;6269166;28;20037;-78
2022/07/25 10:09:50;;;;;;;7.53;4.45;;;35.00;28.50;;;;;;6273232;28;20044;-77
2022/07/25 10:13:27;;;;;;;9.90;4.82;;;35.10;28.40;;;;;;6272850;28;20036;-78
2022/07/25 10:16:28;;;;;;;7.18;4.40;;;35.20;28.40;;;;;;6273348;28;20037;-78
2022/07/25 10:19:42;;;;;;;7.80;4.13;;;35.20;28.20;;;;;;6275589;28;20029;-77
2022/07/25 10:22:45;;;;;;;12.80;4.70;;;35.30;28.10;;;;;;6278637;28;20029;-77
2022/07/25 10:25:46;;;;;;;10.20;4.50;;;35.40;28.50;;;;;;6279792;28;20453;-77
2022/07/25 10:28:48;;;;;;;9.35;4.32;;;35.60;28.10;;;;;;6277259;28;20060;-78
2022/07/25 10:31:50;;;;;;;10.77;4.13;;;35.70;27.90;;;;;;6277100;28;20040;-77
2022/07/25 10:34:53;;;;;;;7.75;4.32;;;35.80;27.70;;;;;;6278169;28;20056;-77
2022/07/25 10:37:56;;;;;;;7.93;4.68;;;35.90;27.60;;;;;;6277771;28;20037;-77
2022/07/25 10:41:00;;;;;;;6.93;4.40;;;36.00;27.30;;;;;;6277459;28;20112;-77
2022/07/25 10:44:01;;;;;;;5.25;3.72;;;36.00;27.10;;;;;;6274818;28;20029;-77
2022/07/25 10:47:07;;;;;;;5.78;3.72;;;36.10;27.30;;;;;;6260292;28;20040;-77
2022/07/25 10:50:10;;;;;;;7.60;4.13;;;36.20;26.60;;;;;;6275227;28;20029;-79
2022/07/25 10:53:11;;;;;;;5.25;3.83;;;36.30;26.30;;;;;;6274628;28;20383;-78
2022/07/25 10:56:13;;;;;;;5.53;3.97;;;36.50;26.20;;;;;;6276533;28;20029;-79
2022/07/25 10:59:25;;;;;;;5.55;3.65;;;36.60;25.90;;;;;;6277773;28;20082;-77
2022/07/25 11:02:27;;;;;;;8.48;3.88;;;36.80;25.70;;;;;;6277785;28;20044;-77
2022/07/25 11:05:29;;;;;;;5.07;3.22;;;37.00;24.80;;;;;;6278308;28;20028;-77
2022/07/25 11:08:31;;;;;;;8.45;3.90;;;37.50;24.20;;;;;;6277791;28;20430;-78
2022/07/25 11:11:37;;;;;;;6.13;3.78;;;37.90;23.60;;;;;;6277705;28;20035;-78
2022/07/25 11:14:41;;;;;;;5.95;3.60;;;38.30;23.10;;;;;;6277838;28;20365;-78
2022/07/25 11:17:49;;;;;;;11.48;3.85;;;38.40;22.80;;;;;;6299564;28;20471;-77
2022/07/25 11:21:01;;;;;;;6.43;3.78;;;38.40;22.90;;;;;;6301717;28;20067;-77
2022/07/25 11:24:02;;;;;;;6.13;3.42;;;38.50;22.70;;;;;;6279791;28;20112;-77
2022/07/25 11:27:04;;;;;;;12.10;3.55;;;38.50;22.70;;;;;;6277323;28;20099;-77
2022/07/25 11:30:15;;;;;;;6.78;3.67;;;38.40;23.00;;;;;;6276337;28;20025;-77
2022/07/25 11:33:16;;;;;;;10.43;3.60;;;38.30;23.10;;;;;;6259393;28;20029;-77
2022/07/25 11:36:18;;;;;;;11.68;3.70;;;38.10;23.40;;;;;;6276345;28;20024;-78
2022/07/25 11:39:19;;;;;;;4.03;3.63;;;38.00;23.70;;;;;;6275847;28;20127;-77
2022/07/25 11:42:20;;;;;;;8.00;3.95;;;38.00;24.00;;;;;;6276968;28;20120;-78
2022/07/25 11:45:22;;;;;;;14.80;3.78;;;37.80;24.00;;;;;;6276381;28;20108;-77
2022/07/25 11:48:36;;;;;;;10.13;3.47;;;37.70;24.00;;;;;;6276715;28;20056;-77
2022/07/25 11:51:38;;;;;;;8.18;3.65;;;37.60;24.20;;;;;;6278008;28;20032;-77
2022/07/25 11:54:56;;;;;;;6.00;3.70;;;37.60;24.20;;;;;;6276325;28;20370;-77
2022/07/25 11:58:00;;;;;;;7.07;3.92;;;37.70;23.90;;;;;;6275273;28;20044;-79
2022/07/25 12:01:11;;;;;;;8.07;4.22;;;37.80;23.50;;;;;;6275401;28;20116;-79
2022/07/25 12:04:13;;;;;;;4.63;3.45;;;37.90;23.30;;;;;;6276421;28;20099;-77
2022/07/25 12:07:14;;;;;;;6.13;4.03;;;37.80;23.00;;;;;;6276081;28;20025;-77
2022/07/25 12:10:18;;;;;;;4.95;3.45;;;37.80;22.90;;;;;;6276594;28;20040;-76
2022/07/25 12:13:27;;;;;;;5.85;3.58;;;38.10;22.80;;;;;;6284547;28;20020;-77
2022/07/25 12:16:28;;;;;;;6.32;3.72;;;38.40;22.50;;;;;;6259130;28;20025;-79
2022/07/25 12:19:29;;;;;;;5.05;3.40;;;38.60;22.20;;;;;;6276122;28;20113;-78
2022/07/25 12:22:30;;;;;;;7.85;3.88;;;38.70;22.20;;;;;;6276279;28;20025;-78
2022/07/25 12:25:32;;;;;;;7.05;3.47;;;38.70;22.30;;;;;;6281057;28;20092;-79
2022/07/25 12:28:33;;;;;;;4.25;3.63;;;38.50;22.30;;;;;;6301028;28;20028;-78
2022/07/25 12:31:34;;;;;;;5.82;3.47;;;38.40;22.40;;;;;;6300314;28;20129;-77
2022/07/25 12:34:36;;;;;;;5.30;3.20;;;38.30;22.60;;;;;;6300290;28;20043;-77
2022/07/25 12:37:39;;;;;;;6.30;4.00;;;38.20;22.60;;;;;;6262625;28;20040;-78
2022/07/25 12:40:39;;;;;;;5.40;3.63;;;38.20;22.50;;;;;;6277248;28;20033;-78
2022/07/25 12:43:40;;;;;;;7.70;3.47;;;38.30;22.40;;;;;;6282032;28;20108;-78
2022/07/25 12:46:41;;;;;;;8.98;3.63;;;38.50;22.20;;;;;;6280761;28;20124;-78
2022/07/25 12:49:42;;;;;;;6.65;3.45;;;38.50;22.10;;;;;;6278935;28;20025;-78
2022/07/25 12:52:44;;;;;;;5.55;3.85;;;38.40;22.10;;;;;;6276171;28;20513;-78
2022/07/25 12:55:46;;;;;;;5.47;3.45;;;38.40;22.20;;;;;;6295159;28;20031;-77
2022/07/25 12:58:49;;;;;;;7.35;3.83;;;38.20;22.10;;;;;;6299248;28;20036;-77
2022/07/25 13:01:50;;;;;;;6.30;3.78;;;37.90;22.10;;;;;;6301472;28;20037;-78
2022/07/25 13:04:51;;;;;;;4.90;3.33;;;37.70;22.20;;;;;;6282485;28;20095;-78
2022/07/25 13:07:52;;;;;;;8.80;3.50;;;37.60;22.10;;;;;;6282504;28;20058;-78
2022/07/25 13:10:52;;;;;;;10.73;3.45;;;37.50;22.10;;;;;;6280874;28;20021;-78
2022/07/25 13:13:53;;;;;;;6.07;3.55;;;37.30;22.20;;;;;;6275609;28;20037;-78
2022/07/25 13:16:57;;;;;;;5.40;3.50;;;37.20;22.30;;;;;;6275580;28;20070;-80
2022/07/25 13:19:58;;;;;;;10.32;3.65;;;37.10;22.30;;;;;;6280579;28;20100;-77
2022/07/25 13:22:59;;;;;;;8.00;3.20;;;37.10;22.40;;;;;;6290717;28;20033;-78
2022/07/25 13:26:00;;;;;;;8.20;3.53;;;37.10;22.30;;;;;;6275247;28;20028;-77
2022/07/25 13:29:01;;;;;;;6.45;3.60;;;37.20;22.40;;;;;;6275361;28;20447;-78
2022/07/25 13:32:04;;;;;;;7.85;3.25;;;37.20;22.40;;;;;;6274903;28;20053;-77
2022/07/25 13:35:05;;;;;;;5.72;3.67;;;37.10;22.30;;;;;;6275494;28;20025;-79
2022/07/25 13:38:09;;;;;;;4.85;3.03;;;37.10;22.40;;;;;;6257256;28;20041;-78
2022/07/25 13:41:10;;;;;;;5.22;3.60;;;37.10;22.40;;;;;;6273041;28;20120;-78
2022/07/25 13:44:14;;;;;;;12.73;3.80;;;37.20;22.50;;;;;;6257763;28;20365;-78
2022/07/25 13:47:15;;;;;;;7.90;3.97;;;37.00;22.60;;;;;;6289807;28;20469;-78
2022/07/25 13:50:15;;;;;;;6.20;3.38;;;37.00;22.70;;;;;;6274786;28;20021;-78
2022/07/25 13:53:16;;;;;;;6.20;3.80;;;37.00;22.80;;;;;;6272532;28;20056;-78
2022/07/25 13:56:17;;;;;;;11.82;3.83;;;37.00;22.80;;;;;;6274323;28;20025;-79
2022/07/25 13:59:18;;;;;;;5.53;3.53;;;37.00;22.90;;;;;;6275523;28;20350;-77
2022/07/25 14:02:19;;;;;;;10.52;3.67;;;36.90;23.00;;;;;;6275682;28;20314;-79
2022/07/25 14:05:20;;;;;;;11.18;3.40;;;37.00;23.10;;;;;;6273714;28;20041;-78
2022/07/25 14:08:21;;;;;;;8.57;3.50;;;37.00;23.20;;;;;;6272808;28;20029;-79
2022/07/25 14:11:22;;;;;;;8.90;3.83;;;36.90;23.30;;;;;;6274114;28;20106;-79
2022/07/25 14:14:23;;;;;;;10.73;3.78;;;36.90;23.60;;;;;;6256630;28;20075;-78
2022/07/25 14:17:24;;;;;;;8.30;3.55;;;36.70;23.90;;;;;;6274882;28;20029;-78
2022/07/25 14:20:25;;;;;;;12.50;3.80;;;36.60;24.50;;;;;;6273477;28;20362;-77
2022/07/25 14:23:26;;;;;;;10.43;3.75;;;36.50;25.00;;;;;;6256251;28;20120;-80
2022/07/25 14:26:27;;;;;;;11.50;2.92;;;36.40;25.40;;;;;;6273094;28;20040;-77
2022/07/25 14:29:28;;;;;;;14.15;3.97;;;36.30;25.10;;;;;;6276379;28;20454;-77
2022/07/25 14:32:29;;;;;;;14.13;3.92;;;36.00;25.00;;;;;;6273919;28;20048;-75
2022/07/25 14:35:30;;;;;;;15.40;4.68;;;35.30;26.50;;;;;;6273506;28;20059;-76
2022/07/25 14:38:31;;;;;;;12.38;3.95;;;33.70;30.10;;;;;;6274569;28;20075;-75
2022/07/25 14:41:32;;;;;;;10.13;4.13;;;32.90;32.10;;;;;;6273374;28;20037;-75
2022/07/25 14:44:33;;;;;;;12.45;3.90;;;32.70;33.30;;;;;;6271926;28;20048;-76
2022/07/25 14:47:34;;;;;;;11.27;4.60;;;32.70;33.30;;;;;;6271752;28;20037;-76
2022/07/25 14:50:35;;;;;;;8.60;4.07;;;32.80;33.20;;;;;;6271877;28;20425;-75
2022/07/25 14:53:36;;;;;;;5.85;3.60;;;32.90;33.10;;;;;;6278777;28;20041;-75
2022/07/25 14:56:38;;;;;;;10.18;4.68;;;33.00;33.30;;;;;;6297999;28;20051;-76
2022/07/25 14:59:39;;;;;;;10.73;4.18;;;33.10;34.50;;;;;;6297891;28;20021;-77
2022/07/25 15:02:40;;;;;;;8.45;4.00;;;33.20;35.90;;;;;;6298019;28;20035;-76
2022/07/25 15:05:41;;;;;;;15.55;4.88;;;33.40;36.90;;;;;;6295554;28;20032;-77
2022/07/25 15:08:42;;;;;;;8.05;4.40;;;33.70;36.40;;;;;;6277053;28;20033;-77
2022/07/25 15:11:43;;;;;;;13.88;4.30;;;34.20;35.50;;;;;;6279140;28;20033;-77
2022/07/25 15:14:44;;;;;;;8.82;3.97;;;34.80;34.30;;;;;;6277599;28;20017;-79
2022/07/25 15:17:45;;;;;;;9.15;3.63;;;35.10;33.00;;;;;;6276232;28;20036;-78
2022/07/25 15:20:47;;;;;;;7.40;3.80;;;35.20;32.20;;;;;;6263823;28;20069;-78
2022/07/25 15:23:48;;;;;;;10.13;3.85;;;35.20;31.50;;;;;;6276460;28;20082;-77
2022/07/25 15:26:49;;;;;;;12.70;4.10;;;35.10;31.20;;;;;;6277997;28;20104;-78
2022/07/25 15:29:50;;;;;;;8.85;4.05;;;35.00;31.90;;;;;;6276647;28;20057;-78
2022/07/25 15:32:51;;;;;;;7.55;3.63;;;34.70;32.70;;;;;;6277424;28;20048;-78
2022/07/25 15:35:53;;;;;;;7.35;3.85;;;34.50;33.20;;;;;;6277561;28;20041;-78
2022/07/25 15:38:54;;;;;;;9.15;4.00;;;34.20;34.10;;;;;;6277142;28;20064;-77
2022/07/25 15:41:55;;;;;;;8.43;3.95;;;34.00;34.40;;;;;;6276062;28;20426;-79
2022/07/25 15:44:56;;;;;;;8.75;4.07;;;33.80;34.60;;;;;;6276187;28;20382;-78
2022/07/25 15:47:58;;;;;;;12.18;3.75;;;33.60;34.60;;;;;;6257408;28;20040;-78